createdAt,value
2018-06-28T00:00:05.488Z,20.23
2018-06-28T00:00:27.306Z,20.22
2018-06-28T00:00:49.082Z,20.21
2018-06-28T00:01:10.862Z,20.23
2018-06-28T00:01:32.656Z,20.24
2018-06-28T00:01:54.505Z,20.24
2018-06-28T00:02:16.280Z,20.24
2018-06-28T00:02:38.072Z,20.23
2018-06-28T00:02:59.834Z,20.22
2018-06-28T00:03:21.631Z,20.22
2018-06-28T00:03:43.687Z,20.22
2018-06-28T00:04:05.443Z,20.23
2018-06-28T00:04:27.220Z,20.23
2018-06-28T00:04:49.016Z,20.21
2018-06-28T00:05:10.794Z,20.21
2018-06-28T00:05:32.655Z,20.21
2018-06-28T00:05:54.444Z,20.21
2018-06-28T00:06:16.226Z,20.20
2018-06-28T00:06:38.009Z,20.18
2018-06-28T00:06:59.789Z,20.17
2018-06-28T00:07:21.571Z,20.17
2018-06-28T00:07:43.355Z,20.16
2018-06-28T00:08:05.111Z,20.17
2018-06-28T00:08:26.897Z,20.15
2018-06-28T00:08:48.655Z,20.14
2018-06-28T00:09:10.596Z,20.13
2018-06-28T00:09:32.379Z,20.14
2018-06-28T00:09:54.139Z,20.12
2018-06-28T00:10:15.893Z,20.13
2018-06-28T00:10:37.650Z,20.12
2018-06-28T00:10:59.451Z,20.12
2018-06-28T00:11:21.204Z,20.13
2018-06-28T00:11:42.968Z,20.12
2018-06-28T00:12:04.750Z,20.10
2018-06-28T00:12:26.520Z,20.10
2018-06-28T00:12:48.275Z,20.10
2018-06-28T00:13:10.031Z,20.08
2018-06-28T00:13:31.810Z,20.06
2018-06-28T00:13:53.568Z,20.07
2018-06-28T00:14:15.327Z,20.06
2018-06-28T00:14:37.104Z,20.07
2018-06-28T00:14:58.868Z,20.08
2018-06-28T00:15:20.654Z,20.07
2018-06-28T00:15:42.581Z,20.07
2018-06-28T00:16:04.342Z,20.06
2018-06-28T00:16:26.108Z,20.06
2018-06-28T00:16:47.886Z,20.04
2018-06-28T00:17:09.654Z,20.05
2018-06-28T00:17:31.449Z,20.05
2018-06-28T00:17:53.204Z,20.06
2018-06-28T00:18:14.971Z,20.06
2018-06-28T00:18:36.768Z,20.06
2018-06-28T00:18:58.533Z,20.07
2018-06-28T00:19:20.307Z,20.06
2018-06-28T00:19:42.059Z,20.07
2018-06-28T00:20:03.825Z,20.05
2018-06-28T00:20:25.571Z,20.07
2018-06-28T00:20:47.341Z,20.06
2018-06-28T00:21:09.110Z,20.04
2018-06-28T00:21:31.152Z,20.04
2018-06-28T00:21:52.912Z,20.04
2018-06-28T00:22:14.697Z,20.05
2018-06-28T00:22:36.500Z,20.04
2018-06-28T00:22:58.255Z,20.04
2018-06-28T00:23:20.018Z,20.01
2018-06-28T00:23:41.798Z,20.00
2018-06-28T00:24:03.554Z,19.99
2018-06-28T00:24:25.307Z,19.96
2018-06-28T00:24:47.097Z,19.95
2018-06-28T00:25:08.848Z,19.95
2018-06-28T00:25:30.636Z,19.96
2018-06-28T00:25:52.405Z,19.98
2018-06-28T00:26:14.428Z,19.97
2018-06-28T00:26:36.183Z,19.97
2018-06-28T00:26:57.944Z,19.95
2018-06-28T00:27:19.690Z,19.98
2018-06-28T00:27:41.465Z,19.94
2018-06-28T00:28:03.228Z,19.94
2018-06-28T00:28:24.992Z,19.94
2018-06-28T00:28:46.780Z,19.96
2018-06-28T00:29:08.542Z,19.94
2018-06-28T00:29:30.293Z,19.95
2018-06-28T00:29:52.038Z,19.97
2018-06-28T00:30:13.824Z,19.93
2018-06-28T00:30:35.584Z,19.93
2018-06-28T00:30:57.356Z,19.94
2018-06-28T00:31:19.110Z,19.92
2018-06-28T00:31:40.881Z,19.94
2018-06-28T00:32:02.648Z,19.94
2018-06-28T00:32:24.417Z,19.92
2018-06-28T00:32:46.173Z,19.91
2018-06-28T00:33:07.962Z,19.90
2018-06-28T00:33:29.729Z,19.89
2018-06-28T00:33:51.523Z,19.89
2018-06-28T00:34:13.286Z,19.88
2018-06-28T00:34:35.044Z,19.88
2018-06-28T00:34:56.803Z,19.87
2018-06-28T00:35:18.563Z,19.86
2018-06-28T00:35:40.310Z,19.86
2018-06-28T00:36:02.064Z,19.87
2018-06-28T00:36:23.828Z,19.86
2018-06-28T00:36:45.610Z,19.86
2018-06-28T00:37:07.368Z,19.86
2018-06-28T00:37:29.176Z,19.86
2018-06-28T00:37:50.947Z,19.86
2018-06-28T00:38:12.712Z,19.88
2018-06-28T00:38:34.467Z,19.87
2018-06-28T00:38:56.287Z,19.86
2018-06-28T00:39:18.055Z,19.85
2018-06-28T00:39:39.821Z,19.84
2018-06-28T00:40:01.593Z,19.82
2018-06-28T00:40:23.359Z,19.82
2018-06-28T00:40:45.241Z,19.81
2018-06-28T00:41:07.004Z,19.82
2018-06-28T00:41:29.762Z,19.82
2018-06-28T00:41:51.523Z,19.82
2018-06-28T00:42:13.290Z,19.83
2018-06-28T00:42:35.066Z,19.83
2018-06-28T00:42:56.822Z,19.83
2018-06-28T00:43:18.594Z,19.83
2018-06-28T00:43:40.400Z,19.81
2018-06-28T00:44:02.178Z,19.80
2018-06-28T00:44:23.935Z,19.79
2018-06-28T00:44:45.700Z,19.78
2018-06-28T00:45:07.477Z,19.76
2018-06-28T00:45:29.243Z,19.77
2018-06-28T00:45:51.022Z,19.76
2018-06-28T00:46:12.786Z,19.76
2018-06-28T00:46:34.544Z,19.78
2018-06-28T00:46:56.319Z,19.77
2018-06-28T00:47:18.088Z,19.77
2018-06-28T00:47:39.955Z,19.77
2018-06-28T00:48:01.731Z,19.77
2018-06-28T00:48:23.533Z,19.77
2018-06-28T00:48:45.292Z,19.76
2018-06-28T00:49:07.105Z,19.74
2018-06-28T00:49:28.876Z,19.74
2018-06-28T00:49:50.640Z,19.75
2018-06-28T00:50:12.418Z,19.74
2018-06-28T00:50:34.181Z,19.76
2018-06-28T00:50:55.989Z,19.74
2018-06-28T00:51:17.758Z,19.74
2018-06-28T00:51:39.556Z,19.75
2018-06-28T00:52:01.314Z,19.76
2018-06-28T00:52:23.110Z,19.76
2018-06-28T00:52:44.880Z,19.75
2018-06-28T00:53:06.644Z,19.75
2018-06-28T00:53:28.429Z,19.75
2018-06-28T00:53:50.186Z,19.73
2018-06-28T00:54:12.000Z,19.72
2018-06-28T00:54:33.779Z,19.71
2018-06-28T00:54:55.556Z,19.71
2018-06-28T00:55:17.304Z,19.71
2018-06-28T00:55:39.099Z,19.73
2018-06-28T00:56:00.869Z,19.73
2018-06-28T00:56:22.640Z,19.71
2018-06-28T00:56:44.412Z,19.71
2018-06-28T00:57:06.180Z,19.70
2018-06-28T00:57:27.953Z,19.69
2018-06-28T00:57:49.719Z,19.71
2018-06-28T00:58:11.495Z,19.70
2018-06-28T00:58:33.261Z,19.67
2018-06-28T00:58:55.014Z,19.66
2018-06-28T00:59:16.786Z,19.67
2018-06-28T00:59:38.556Z,19.65
2018-06-28T01:00:00.359Z,19.65
2018-06-28T01:00:22.145Z,19.64
2018-06-28T01:00:43.944Z,19.64
2018-06-28T01:01:05.691Z,19.64
2018-06-28T01:01:27.479Z,19.65
2018-06-28T01:01:49.252Z,19.64
2018-06-28T01:02:11.097Z,19.65
2018-06-28T01:02:32.869Z,19.65
2018-06-28T01:02:54.639Z,19.64
2018-06-28T01:03:16.399Z,19.67
2018-06-28T01:03:38.268Z,19.65
2018-06-28T01:04:00.050Z,19.67
2018-06-28T01:04:21.810Z,19.65
2018-06-28T01:04:43.585Z,19.64
2018-06-28T01:05:05.348Z,19.64
2018-06-28T01:05:27.119Z,19.63
2018-06-28T01:05:48.880Z,19.63
2018-06-28T01:06:10.740Z,19.62
2018-06-28T01:06:32.499Z,19.62
2018-06-28T01:06:54.296Z,19.61
2018-06-28T01:07:16.047Z,19.61
2018-06-28T01:07:37.802Z,19.61
2018-06-28T01:07:59.560Z,19.62
2018-06-28T01:08:21.325Z,19.60
2018-06-28T01:08:43.436Z,19.59
2018-06-28T01:09:05.191Z,19.61
2018-06-28T01:09:26.979Z,19.60
2018-06-28T01:09:48.750Z,19.61
2018-06-28T01:10:10.560Z,19.58
2018-06-28T01:10:32.350Z,19.59
2018-06-28T01:10:54.100Z,19.61
2018-06-28T01:11:15.868Z,19.60
2018-06-28T01:11:37.920Z,19.58
2018-06-28T01:11:59.689Z,19.58
2018-06-28T01:12:21.475Z,19.57
2018-06-28T01:12:43.236Z,19.58
2018-06-28T01:13:05.001Z,19.58
2018-06-28T01:13:26.779Z,19.58
2018-06-28T01:13:48.540Z,19.60
2018-06-28T01:14:10.306Z,19.59
2018-06-28T01:14:32.078Z,19.59
2018-06-28T01:14:53.840Z,19.59
2018-06-28T01:15:15.614Z,19.61
2018-06-28T01:15:37.380Z,19.59
2018-06-28T01:15:59.155Z,19.59
2018-06-28T01:16:20.922Z,19.57
2018-06-28T01:16:42.714Z,19.59
2018-06-28T01:17:04.477Z,19.60
2018-06-28T01:17:26.247Z,19.58
2018-06-28T01:17:48.028Z,19.56
2018-06-28T01:18:09.790Z,19.57
2018-06-28T01:18:31.554Z,19.57
2018-06-28T01:18:53.343Z,19.56
2018-06-28T01:19:15.100Z,19.53
2018-06-28T01:19:36.908Z,19.54
2018-06-28T01:19:58.693Z,19.56
2018-06-28T01:20:20.483Z,19.53
2018-06-28T01:20:42.246Z,19.56
2018-06-28T01:21:04.720Z,19.55
2018-06-28T01:21:26.486Z,19.56
2018-06-28T01:21:48.249Z,19.56
2018-06-28T01:22:10.021Z,19.54
2018-06-28T01:22:31.792Z,19.54
2018-06-28T01:22:53.559Z,19.52
2018-06-28T01:23:15.314Z,19.54
2018-06-28T01:23:37.085Z,19.52
2018-06-28T01:23:58.840Z,19.53
2018-06-28T01:24:20.597Z,19.53
2018-06-28T01:24:42.395Z,19.53
2018-06-28T01:25:04.162Z,19.52
2018-06-28T01:25:25.921Z,19.52
2018-06-28T01:25:47.700Z,19.50
2018-06-28T01:26:09.517Z,19.48
2018-06-28T01:26:31.289Z,19.48
2018-06-28T01:26:53.050Z,19.48
2018-06-28T01:27:14.831Z,19.49
2018-06-28T01:27:36.591Z,19.47
2018-06-28T01:27:58.367Z,19.49
2018-06-28T01:28:20.144Z,19.48
2018-06-28T01:28:41.891Z,19.50
2018-06-28T01:29:03.677Z,19.48
2018-06-28T01:29:25.431Z,19.48
2018-06-28T01:29:47.232Z,19.48
2018-06-28T01:30:09.027Z,19.49
2018-06-28T01:30:30.880Z,19.49
2018-06-28T01:30:52.809Z,19.48
2018-06-28T01:31:14.563Z,19.47
2018-06-28T01:31:36.325Z,19.47
2018-06-28T01:31:58.080Z,19.48
2018-06-28T01:32:19.854Z,19.48
2018-06-28T01:32:41.650Z,19.47
2018-06-28T01:33:03.403Z,19.48
2018-06-28T01:33:25.169Z,19.45
2018-06-28T01:33:46.959Z,19.45
2018-06-28T01:34:08.717Z,19.47
2018-06-28T01:34:30.492Z,19.44
2018-06-28T01:34:52.290Z,19.44
2018-06-28T01:35:14.083Z,19.45
2018-06-28T01:35:35.864Z,19.43
2018-06-28T01:35:57.620Z,19.43
2018-06-28T01:36:19.390Z,19.43
2018-06-28T01:36:41.168Z,19.44
2018-06-28T01:37:02.923Z,19.44
2018-06-28T01:37:24.672Z,19.44
2018-06-28T01:37:46.415Z,19.44
2018-06-28T01:38:08.171Z,19.43
2018-06-28T01:38:29.935Z,19.41
2018-06-28T01:38:51.737Z,19.40
2018-06-28T01:39:13.524Z,19.39
2018-06-28T01:39:35.276Z,19.40
2018-06-28T01:39:57.067Z,19.40
2018-06-28T01:40:18.976Z,19.41
2018-06-28T01:40:40.756Z,19.36
2018-06-28T01:41:02.511Z,19.37
2018-06-28T01:41:24.279Z,19.35
2018-06-28T01:41:46.038Z,19.36
2018-06-28T01:42:07.809Z,19.36
2018-06-28T01:42:29.593Z,19.36
2018-06-28T01:42:51.360Z,19.36
2018-06-28T01:43:13.128Z,19.35
2018-06-28T01:43:38.944Z,19.37
2018-06-28T01:44:00.713Z,19.37
2018-06-28T01:44:22.464Z,19.37
2018-06-28T01:44:44.226Z,19.37
2018-06-28T01:45:06.014Z,19.37
2018-06-28T01:45:27.784Z,19.36
2018-06-28T01:45:49.536Z,19.35
2018-06-28T01:46:11.294Z,19.37
2018-06-28T01:46:33.064Z,19.35
2018-06-28T01:46:54.874Z,19.36
2018-06-28T01:47:16.616Z,19.36
2018-06-28T01:47:38.638Z,19.36
2018-06-28T01:48:00.432Z,19.35
2018-06-28T01:48:22.203Z,19.33
2018-06-28T01:48:44.199Z,19.31
2018-06-28T01:49:05.977Z,19.33
2018-06-28T01:49:27.774Z,19.33
2018-06-28T01:49:49.548Z,19.34
2018-06-28T01:50:11.337Z,19.33
2018-06-28T01:50:33.108Z,19.34
2018-06-28T01:50:54.860Z,19.32
2018-06-28T01:51:16.605Z,19.33
2018-06-28T01:51:38.386Z,19.34
2018-06-28T01:52:00.148Z,19.34
2018-06-28T01:52:21.947Z,19.35
2018-06-28T01:52:43.713Z,19.35
2018-06-28T01:53:05.532Z,19.33
2018-06-28T01:53:27.849Z,19.33
2018-06-28T01:53:49.619Z,19.33
2018-06-28T01:54:11.385Z,19.32
2018-06-28T01:54:33.146Z,19.30
2018-06-28T01:54:54.944Z,19.32
2018-06-28T01:55:16.774Z,19.31
2018-06-28T01:55:38.539Z,19.30
2018-06-28T01:56:00.325Z,19.30
2018-06-28T01:56:22.132Z,19.30
2018-06-28T01:56:43.905Z,19.28
2018-06-28T01:57:05.682Z,19.29
2018-06-28T01:57:27.441Z,19.29
2018-06-28T01:57:49.209Z,19.29
2018-06-28T01:58:10.979Z,19.28
2018-06-28T01:58:32.791Z,19.28
2018-06-28T01:58:54.547Z,19.26
2018-06-28T01:59:16.343Z,19.26
2018-06-28T01:59:38.100Z,19.26
2018-06-28T01:59:59.858Z,19.27
2018-06-28T02:00:21.655Z,19.27
2018-06-28T02:00:43.520Z,19.25
2018-06-28T02:01:05.291Z,19.25
2018-06-28T02:01:27.102Z,19.25
2018-06-28T02:01:48.850Z,19.24
2018-06-28T02:02:10.641Z,19.24
2018-06-28T02:02:32.419Z,19.26
2018-06-28T02:02:54.230Z,19.26
2018-06-28T02:03:16.535Z,19.24
2018-06-28T02:03:38.282Z,19.26
2018-06-28T02:04:00.044Z,19.25
2018-06-28T02:04:21.820Z,19.24
2018-06-28T02:04:43.575Z,19.25
2018-06-28T02:05:05.345Z,19.24
2018-06-28T02:05:27.133Z,19.24
2018-06-28T02:05:50.861Z,19.23
2018-06-28T02:06:12.648Z,19.25
2018-06-28T02:06:34.402Z,19.25
2018-06-28T02:06:56.191Z,19.26
2018-06-28T02:07:18.179Z,19.23
2018-06-28T02:07:39.944Z,19.22
2018-06-28T02:08:01.700Z,19.19
2018-06-28T02:08:23.535Z,19.20
2018-06-28T02:08:45.304Z,19.20
2018-06-28T02:09:07.059Z,19.19
2018-06-28T02:09:28.827Z,19.20
2018-06-28T02:09:50.603Z,19.20
2018-06-28T02:10:12.372Z,19.23
2018-06-28T02:10:34.184Z,19.20
2018-06-28T02:10:55.935Z,19.21
2018-06-28T02:11:17.739Z,19.20
2018-06-28T02:11:39.508Z,19.20
2018-06-28T02:12:01.277Z,19.19
2018-06-28T02:12:23.036Z,19.19
2018-06-28T02:12:44.793Z,19.18
2018-06-28T02:13:06.600Z,19.18
2018-06-28T02:13:28.396Z,19.18
2018-06-28T02:13:50.191Z,19.16
2018-06-28T02:14:11.949Z,19.17
2018-06-28T02:14:33.701Z,19.15
2018-06-28T02:14:55.473Z,19.14
2018-06-28T02:15:17.240Z,19.15
2018-06-28T02:15:39.044Z,19.16
2018-06-28T02:16:00.805Z,19.17
2018-06-28T02:16:22.580Z,19.13
2018-06-28T02:16:44.343Z,19.14
2018-06-28T02:17:06.101Z,19.13
2018-06-28T02:17:27.858Z,19.14
2018-06-28T02:17:49.625Z,19.14
2018-06-28T02:18:11.413Z,19.15
2018-06-28T02:18:33.197Z,19.14
2018-06-28T02:18:54.963Z,19.12
2018-06-28T02:19:16.742Z,19.14
2018-06-28T02:19:38.499Z,19.12
2018-06-28T02:20:00.252Z,19.13
2018-06-28T02:20:22.009Z,19.13
2018-06-28T02:20:43.792Z,19.14
2018-06-28T02:21:05.547Z,19.13
2018-06-28T02:21:27.326Z,19.13
2018-06-28T02:21:49.091Z,19.12
2018-06-28T02:22:10.838Z,19.11
2018-06-28T02:22:32.623Z,19.12
2018-06-28T02:22:54.636Z,19.14
2018-06-28T02:23:16.397Z,19.11
2018-06-28T02:23:38.156Z,19.09
2018-06-28T02:23:59.932Z,19.08
2018-06-28T02:24:21.671Z,19.09
2018-06-28T02:24:43.440Z,19.09
2018-06-28T02:25:05.186Z,19.08
2018-06-28T02:25:27.010Z,19.08
2018-06-28T02:25:48.799Z,19.07
2018-06-28T02:26:10.588Z,19.08
2018-06-28T02:26:32.405Z,19.07
2018-06-28T02:26:54.167Z,19.08
2018-06-28T02:27:15.926Z,19.08
2018-06-28T02:27:37.679Z,19.08
2018-06-28T02:27:59.436Z,19.07
2018-06-28T02:28:21.192Z,19.06
2018-06-28T02:28:42.958Z,19.08
2018-06-28T02:29:04.731Z,19.06
2018-06-28T02:29:26.496Z,19.07
2018-06-28T02:29:48.264Z,19.08
2018-06-28T02:30:10.248Z,19.07
2018-06-28T02:30:32.007Z,19.05
2018-06-28T02:30:53.815Z,19.05
2018-06-28T02:31:15.562Z,19.06
2018-06-28T02:31:37.332Z,19.06
2018-06-28T02:31:59.091Z,19.07
2018-06-28T02:32:20.848Z,19.05
2018-06-28T02:32:42.625Z,19.04
2018-06-28T02:33:04.400Z,19.05
2018-06-28T02:33:26.227Z,19.05
2018-06-28T02:33:47.986Z,19.09
2018-06-28T02:34:09.747Z,19.08
2018-06-28T02:34:31.511Z,19.07
2018-06-28T02:34:53.273Z,19.08
2018-06-28T02:35:15.117Z,19.10
2018-06-28T02:35:36.891Z,19.07
2018-06-28T02:35:58.690Z,19.05
2018-06-28T02:36:20.469Z,19.05
2018-06-28T02:36:42.282Z,19.04
2018-06-28T02:37:04.275Z,19.04
2018-06-28T02:37:26.033Z,19.04
2018-06-28T02:37:47.809Z,19.04
2018-06-28T02:38:09.567Z,19.05
2018-06-28T02:38:31.363Z,19.03
2018-06-28T02:38:53.137Z,19.02
2018-06-28T02:39:14.888Z,19.01
2018-06-28T02:39:36.664Z,19.03
2018-06-28T02:39:58.424Z,19.02
2018-06-28T02:40:20.224Z,19.02
2018-06-28T02:40:41.997Z,19.02
2018-06-28T02:41:03.792Z,19.02
2018-06-28T02:41:25.564Z,18.99
2018-06-28T02:41:47.361Z,18.99
2018-06-28T02:42:09.156Z,19.00
2018-06-28T02:42:30.918Z,18.99
2018-06-28T02:42:52.732Z,19.01
2018-06-28T02:43:14.502Z,19.01
2018-06-28T02:43:36.275Z,19.02
2018-06-28T02:43:58.027Z,19.00
2018-06-28T02:44:19.799Z,18.99
2018-06-28T02:44:41.560Z,19.01
2018-06-28T02:45:03.458Z,18.99
2018-06-28T02:45:25.228Z,18.99
2018-06-28T02:45:46.988Z,19.00
2018-06-28T02:46:08.794Z,18.99
2018-06-28T02:46:30.569Z,18.98
2018-06-28T02:46:52.327Z,18.98
2018-06-28T02:47:14.094Z,18.96
2018-06-28T02:47:35.868Z,18.96
2018-06-28T02:47:57.632Z,18.97
2018-06-28T02:48:19.412Z,18.97
2018-06-28T02:48:41.173Z,18.95
2018-06-28T02:49:02.926Z,18.96
2018-06-28T02:49:24.695Z,18.95
2018-06-28T02:49:46.447Z,18.95
2018-06-28T02:50:08.216Z,18.94
2018-06-28T02:50:29.982Z,18.93
2018-06-28T02:50:51.723Z,18.94
2018-06-28T02:51:13.542Z,18.93
2018-06-28T02:51:35.381Z,18.92
2018-06-28T02:51:57.153Z,18.92
2018-06-28T02:52:18.932Z,18.92
2018-06-28T02:52:40.705Z,18.94
2018-06-28T02:53:02.471Z,18.94
2018-06-28T02:53:24.228Z,18.94
2018-06-28T02:53:45.987Z,18.93
2018-06-28T02:54:07.953Z,18.94
2018-06-28T02:54:29.712Z,18.92
2018-06-28T02:54:51.451Z,18.93
2018-06-28T02:55:13.223Z,18.93
2018-06-28T02:55:35.025Z,18.92
2018-06-28T02:55:56.843Z,18.94
2018-06-28T02:56:18.638Z,18.93
2018-06-28T02:56:40.407Z,18.93
2018-06-28T02:57:02.184Z,18.91
2018-06-28T02:57:23.956Z,18.89
2018-06-28T02:57:45.733Z,18.91
2018-06-28T02:58:07.520Z,18.90
2018-06-28T02:58:29.286Z,18.90
2018-06-28T02:58:51.047Z,18.88
2018-06-28T02:59:12.828Z,18.87
2018-06-28T02:59:34.602Z,18.88
2018-06-28T02:59:56.386Z,18.87
2018-06-28T03:00:18.158Z,18.89
2018-06-28T03:00:39.944Z,18.88
2018-06-28T03:01:01.692Z,18.88
2018-06-28T03:01:23.523Z,18.85
2018-06-28T03:01:45.286Z,18.84
2018-06-28T03:02:07.081Z,18.85
2018-06-28T03:02:28.841Z,18.85
2018-06-28T03:02:50.632Z,18.87
2018-06-28T03:03:12.410Z,18.85
2018-06-28T03:03:34.179Z,18.86
2018-06-28T03:03:55.935Z,18.85
2018-06-28T03:04:17.684Z,18.85
2018-06-28T03:04:39.442Z,18.86
2018-06-28T03:05:01.224Z,18.88
2018-06-28T03:05:22.981Z,18.85
2018-06-28T03:05:44.795Z,18.86
2018-06-28T03:06:06.553Z,18.86
2018-06-28T03:06:28.340Z,18.83
2018-06-28T03:06:50.099Z,18.84
2018-06-28T03:07:11.864Z,18.83
2018-06-28T03:07:33.642Z,18.80
2018-06-28T03:07:55.395Z,18.79
2018-06-28T03:08:17.181Z,18.78
2018-06-28T03:08:38.952Z,18.79
2018-06-28T03:09:00.739Z,18.80
2018-06-28T03:09:22.513Z,18.77
2018-06-28T03:09:44.283Z,18.78
2018-06-28T03:10:06.041Z,18.78
2018-06-28T03:10:27.804Z,18.77
2018-06-28T03:10:49.563Z,18.77
2018-06-28T03:11:11.328Z,18.79
2018-06-28T03:11:33.138Z,18.80
2018-06-28T03:11:54.918Z,18.81
2018-06-28T03:12:16.740Z,18.78
2018-06-28T03:12:38.495Z,18.80
2018-06-28T03:13:00.249Z,18.81
2018-06-28T03:13:22.048Z,18.79
2018-06-28T03:13:43.829Z,18.82
2018-06-28T03:14:05.811Z,18.81
2018-06-28T03:14:27.577Z,18.83
2018-06-28T03:14:49.353Z,18.81
2018-06-28T03:15:11.207Z,18.82
2018-06-28T03:15:32.975Z,18.80
2018-06-28T03:15:54.820Z,18.79
2018-06-28T03:16:16.882Z,18.79
2018-06-28T03:16:38.694Z,18.77
2018-06-28T03:17:00.480Z,18.78
2018-06-28T03:17:22.255Z,18.77
2018-06-28T03:17:44.042Z,18.79
2018-06-28T03:18:05.819Z,18.80
2018-06-28T03:18:27.586Z,18.81
2018-06-28T03:18:49.346Z,18.79
2018-06-28T03:19:11.103Z,18.77
2018-06-28T03:19:32.878Z,18.78
2018-06-28T03:19:54.631Z,18.77
2018-06-28T03:20:16.449Z,18.76
2018-06-28T03:20:38.202Z,18.74
2018-06-28T03:21:00.040Z,18.75
2018-06-28T03:21:21.804Z,18.76
2018-06-28T03:21:43.600Z,18.74
2018-06-28T03:22:05.354Z,18.76
2018-06-28T03:22:27.139Z,18.76
2018-06-28T03:22:48.903Z,18.75
2018-06-28T03:23:10.661Z,18.74
2018-06-28T03:23:32.543Z,18.75
2018-06-28T03:23:54.309Z,18.75
2018-06-28T03:24:16.113Z,18.76
2018-06-28T03:24:37.969Z,18.76
2018-06-28T03:24:59.743Z,18.74
2018-06-28T03:25:21.528Z,18.72
2018-06-28T03:25:43.303Z,18.71
2018-06-28T03:26:05.065Z,18.71
2018-06-28T03:26:26.877Z,18.72
2018-06-28T03:26:48.702Z,18.70
2018-06-28T03:27:10.483Z,18.68
2018-06-28T03:27:32.239Z,18.69
2018-06-28T03:27:54.002Z,18.69
2018-06-28T03:28:15.772Z,18.71
2018-06-28T03:28:37.536Z,18.70
2018-06-28T03:28:59.322Z,18.71
2018-06-28T03:29:21.086Z,18.69
2018-06-28T03:29:42.856Z,18.70
2018-06-28T03:30:04.664Z,18.71
2018-06-28T03:30:26.430Z,18.69
2018-06-28T03:30:48.205Z,18.69
2018-06-28T03:31:09.976Z,18.69
2018-06-28T03:31:31.725Z,18.72
2018-06-28T03:31:53.514Z,18.69
2018-06-28T03:32:15.289Z,18.68
2018-06-28T03:32:37.056Z,18.69
2018-06-28T03:32:58.823Z,18.67
2018-06-28T03:33:20.576Z,18.66
2018-06-28T03:33:42.383Z,18.66
2018-06-28T03:34:04.143Z,18.67
2018-06-28T03:34:25.943Z,18.67
2018-06-28T03:34:47.691Z,18.69
2018-06-28T03:35:09.451Z,18.66
2018-06-28T03:35:31.212Z,18.71
2018-06-28T03:35:52.981Z,18.69
2018-06-28T03:36:14.733Z,18.69
2018-06-28T03:36:36.528Z,18.69
2018-06-28T03:36:58.336Z,18.68
2018-06-28T03:37:20.100Z,18.68
2018-06-28T03:37:41.906Z,18.68
2018-06-28T03:38:03.721Z,18.67
2018-06-28T03:38:25.436Z,18.66
2018-06-28T03:38:47.202Z,18.65
2018-06-28T03:39:09.929Z,18.65
2018-06-28T03:39:31.691Z,18.64
2018-06-28T03:39:53.456Z,18.63
2018-06-28T03:40:15.228Z,18.66
2018-06-28T03:40:36.991Z,18.68
2018-06-28T03:40:58.764Z,18.67
2018-06-28T03:41:20.506Z,18.64
2018-06-28T03:41:42.647Z,18.63
2018-06-28T03:42:04.436Z,18.64
2018-06-28T03:42:26.206Z,18.64
2018-06-28T03:42:48.017Z,18.64
2018-06-28T03:43:09.776Z,18.63
2018-06-28T03:43:31.612Z,18.65
2018-06-28T03:43:53.377Z,18.63
2018-06-28T03:44:15.186Z,18.64
2018-06-28T03:44:36.943Z,18.63
2018-06-28T03:44:58.709Z,18.65
2018-06-28T03:45:20.484Z,18.66
2018-06-28T03:45:42.293Z,18.66
2018-06-28T03:46:04.113Z,18.67
2018-06-28T03:46:25.925Z,18.68
2018-06-28T03:46:47.708Z,18.71
2018-06-28T03:47:09.505Z,18.73
2018-06-28T03:47:31.288Z,18.72
2018-06-28T03:47:53.073Z,18.68
2018-06-28T03:48:14.831Z,18.68
2018-06-28T03:48:36.629Z,18.68
2018-06-28T03:48:58.426Z,18.68
2018-06-28T03:49:20.215Z,18.69
2018-06-28T03:49:42.003Z,18.68
2018-06-28T03:50:03.765Z,18.68
2018-06-28T03:50:25.575Z,18.68
2018-06-28T03:50:47.356Z,18.70
2018-06-28T03:51:09.124Z,18.69
2018-06-28T03:51:30.935Z,18.68
2018-06-28T03:51:52.720Z,18.65
2018-06-28T03:52:14.534Z,18.67
2018-06-28T03:52:36.306Z,18.65
2018-06-28T03:52:58.098Z,18.66
2018-06-28T03:53:19.868Z,18.65
2018-06-28T03:53:41.673Z,18.65
2018-06-28T03:54:03.710Z,18.66
2018-06-28T03:54:25.492Z,18.64
2018-06-28T03:54:47.284Z,18.62
2018-06-28T03:55:09.058Z,18.63
2018-06-28T03:55:30.825Z,18.61
2018-06-28T03:55:52.601Z,18.62
2018-06-28T03:56:14.763Z,18.63
2018-06-28T03:56:36.776Z,18.63
2018-06-28T03:56:58.548Z,18.63
2018-06-28T03:57:20.372Z,18.63
2018-06-28T03:57:42.149Z,18.62
2018-06-28T03:58:03.900Z,18.67
2018-06-28T03:58:25.673Z,18.66
2018-06-28T03:58:47.453Z,18.68
2018-06-28T03:59:09.239Z,18.66
2018-06-28T03:59:31.008Z,18.65
2018-06-28T03:59:52.783Z,18.66
2018-06-28T04:00:14.548Z,18.66
2018-06-28T04:00:36.386Z,18.67
2018-06-28T04:00:58.164Z,18.63
2018-06-28T04:01:19.940Z,18.62
2018-06-28T04:01:41.707Z,18.62
2018-06-28T04:02:03.491Z,18.61
2018-06-28T04:02:25.288Z,18.61
2018-06-28T04:02:47.048Z,18.62
2018-06-28T04:03:08.871Z,18.61
2018-06-28T04:03:30.636Z,18.62
2018-06-28T04:03:52.415Z,18.62
2018-06-28T04:04:14.165Z,18.61
2018-06-28T04:04:35.925Z,18.62
2018-06-28T04:04:57.714Z,18.64
2018-06-28T04:05:19.502Z,18.62
2018-06-28T04:05:41.297Z,18.60
2018-06-28T04:06:03.076Z,18.61
2018-06-28T04:06:24.931Z,18.60
2018-06-28T04:06:46.713Z,18.57
2018-06-28T04:07:08.480Z,18.56
2018-06-28T04:07:30.304Z,18.54
2018-06-28T04:07:52.078Z,18.56
2018-06-28T04:08:13.855Z,18.57
2018-06-28T04:08:35.628Z,18.55
2018-06-28T04:09:08.892Z,18.54
2018-06-28T04:09:30.659Z,18.51
2018-06-28T04:09:52.421Z,18.50
2018-06-28T04:10:14.201Z,18.53
2018-06-28T04:10:35.966Z,18.51
2018-06-28T04:10:57.829Z,18.52
2018-06-28T04:11:19.618Z,18.54
2018-06-28T04:11:41.380Z,18.55
2018-06-28T04:12:03.154Z,18.53
2018-06-28T04:12:24.959Z,18.54
2018-06-28T04:12:46.769Z,18.55
2018-06-28T04:13:08.569Z,18.56
2018-06-28T04:13:30.348Z,18.53
2018-06-28T04:13:52.239Z,18.53
2018-06-28T04:14:14.010Z,18.53
2018-06-28T04:14:35.792Z,18.51
2018-06-28T04:14:57.580Z,18.52
2018-06-28T04:15:51.911Z,18.52
2018-06-28T04:16:13.711Z,18.50
2018-06-28T04:16:35.815Z,18.50
2018-06-28T04:16:57.583Z,18.48
2018-06-28T04:17:19.353Z,18.51
2018-06-28T04:17:41.166Z,18.52
2018-06-28T04:18:02.962Z,18.54
2018-06-28T04:18:24.725Z,18.55
2018-06-28T04:18:46.523Z,18.55
2018-06-28T04:19:08.287Z,18.56
2018-06-28T04:19:30.069Z,18.57
2018-06-28T04:19:51.827Z,18.56
2018-06-28T04:20:13.579Z,18.55
2018-06-28T04:20:35.338Z,18.56
2018-06-28T04:20:57.108Z,18.57
2018-06-28T04:21:19.279Z,18.56
2018-06-28T04:21:41.076Z,18.57
2018-06-28T04:22:02.882Z,18.57
2018-06-28T04:22:29.708Z,18.56
2018-06-28T04:22:51.459Z,18.58
2018-06-28T04:23:13.247Z,18.56
2018-06-28T04:23:35.049Z,18.56
2018-06-28T04:23:56.828Z,18.57
2018-06-28T04:24:18.653Z,18.56
2018-06-28T04:24:40.411Z,18.56
2018-06-28T04:25:02.181Z,18.54
2018-06-28T04:25:23.996Z,18.56
2018-06-28T04:25:45.756Z,18.58
2018-06-28T04:26:07.549Z,18.57
2018-06-28T04:26:29.339Z,18.57
2018-06-28T04:26:51.118Z,18.58
2018-06-28T04:27:12.874Z,18.60
2018-06-28T04:27:34.715Z,18.59
2018-06-28T04:27:56.424Z,18.60
2018-06-28T04:28:18.224Z,18.59
2018-06-28T04:28:39.975Z,18.59
2018-06-28T04:29:01.737Z,18.58
2018-06-28T04:29:23.517Z,18.56
2018-06-28T04:29:45.300Z,18.57
2018-06-28T04:30:07.123Z,18.58
2018-06-28T04:30:28.906Z,18.57
2018-06-28T04:30:50.689Z,18.58
2018-06-28T04:31:12.434Z,18.57
2018-06-28T04:31:34.238Z,18.58
2018-06-28T04:31:56.019Z,18.56
2018-06-28T04:32:17.817Z,18.56
2018-06-28T04:32:39.591Z,18.56
2018-06-28T04:33:01.340Z,18.57
2018-06-28T04:33:23.146Z,18.57
2018-06-28T04:33:44.973Z,18.58
2018-06-28T04:34:06.768Z,18.57
2018-06-28T04:34:28.554Z,18.57
2018-06-28T04:34:51.004Z,18.58
2018-06-28T04:35:12.792Z,18.56
2018-06-28T04:35:34.554Z,18.57
2018-06-28T04:35:56.324Z,18.56
2018-06-28T04:36:18.092Z,18.57
2018-06-28T04:36:39.851Z,18.56
2018-06-28T04:37:01.615Z,18.59
2018-06-28T04:37:23.388Z,18.59
2018-06-28T04:37:45.146Z,18.58
2018-06-28T04:38:06.904Z,18.57
2018-06-28T04:38:28.716Z,18.57
2018-06-28T04:38:50.483Z,18.57
2018-06-28T04:39:13.227Z,18.57
2018-06-28T04:39:34.976Z,18.56
2018-06-28T04:39:56.756Z,18.59
2018-06-28T04:40:18.515Z,18.60
2018-06-28T04:40:40.286Z,18.59
2018-06-28T04:41:02.067Z,18.59
2018-06-28T04:41:23.844Z,18.59